UA Monticello, Arkansas
Current Conditions -  °F | °C
As of 8:53 PM on Monday 26 Jan 2015 (Local Time) from KLLQ Reporting Station
Clear Clear  
Wind Chill: 50°   Ceiling: Unl
Heat Index: 50°   Visibility: 10mi
Dew Point: 34°   Wind: 8mph
Humidity: 54%   Direction: 260°W
Pressure: 30.01"   Gusts: NA
Location:  33.5819°N, 91.7907°W
Report Text: KLLQ 270253Z AUTO 26007KT 10SM CLR 10/01 A3001 RMK AO2 SLP163 T01000011 50004
Loading
Personal Weather Stations






























Interactive Weather Map New forecast layout! Learn more

10-Day Weather Forecast

Advertisements
Track Severe Weather on mobile